createdAt,value
2018-09-01T00:00:05.990Z,32.7
2018-09-01T00:01:07.556Z,32.3
2018-09-01T00:02:23.813Z,32.3
2018-09-01T00:03:25.393Z,32.3
2018-09-01T00:04:26.969Z,31.8
2018-09-01T00:05:28.511Z,32.7
2018-09-01T00:06:30.108Z,33.2
2018-09-01T00:07:31.707Z,32.3
2018-09-01T00:08:33.332Z,32.3
2018-09-01T00:09:34.882Z,31.8
2018-09-01T00:10:36.282Z,32.7
2018-09-01T00:11:37.854Z,32.7
2018-09-01T00:12:39.426Z,32.7
2018-09-01T00:13:41.006Z,32.7
2018-09-01T00:14:42.565Z,32.7
2018-09-01T00:15:44.135Z,32.7
2018-09-01T00:16:45.535Z,31.8
2018-09-01T00:17:47.103Z,31.8
2018-09-01T00:18:48.648Z,32.3
2018-09-01T00:19:50.210Z,32.7
2018-09-01T00:20:51.763Z,31.8
2018-09-01T00:21:53.177Z,31.8
2018-09-01T00:22:54.761Z,32.7
2018-09-01T00:23:56.340Z,32.3
2018-09-01T00:24:57.897Z,32.3
2018-09-01T00:25:59.460Z,32.7
2018-09-01T00:27:01.020Z,32.3
2018-09-01T00:28:02.444Z,32.7
2018-09-01T00:29:04.124Z,31.8
2018-09-01T00:30:05.572Z,32.3
2018-09-01T00:31:07.171Z,32.3
2018-09-01T00:32:08.716Z,32.3
2018-09-01T00:33:10.300Z,31.8
2018-09-01T00:34:11.869Z,32.3
2018-09-01T00:35:13.447Z,32.3
2018-09-01T00:36:15.023Z,32.3
2018-09-01T00:37:16.755Z,31.3
2018-09-01T00:38:18.431Z,31.3
2018-09-01T00:39:20.015Z,31.3
2018-09-01T00:40:21.588Z,31.8
2018-09-01T00:41:23.167Z,31.3
2018-09-01T00:42:24.748Z,31.8
2018-09-01T00:43:26.135Z,31.8
2018-09-01T00:44:27.705Z,32.3
2018-09-01T00:45:28.942Z,32.3
2018-09-01T00:46:30.521Z,32.7
2018-09-01T00:47:32.082Z,31.3
2018-09-01T00:48:33.507Z,32.3
2018-09-01T00:49:34.922Z,31.3
2018-09-01T00:50:36.501Z,31.3
2018-09-01T00:51:38.066Z,31.3
2018-09-01T00:52:39.314Z,31.8
2018-09-01T00:53:40.733Z,32.3
2018-09-01T00:54:42.295Z,31.8
2018-09-01T00:55:43.864Z,31.8
2018-09-01T00:56:45.427Z,31.3
2018-09-01T00:57:47.010Z,30.8
2018-09-01T00:58:48.597Z,31.3
2018-09-01T00:59:50.155Z,30.8
2018-09-01T01:00:51.730Z,31.8
2018-09-01T01:01:53.314Z,31.3
2018-09-01T01:02:54.886Z,31.3
2018-09-01T01:03:56.470Z,31.3
2018-09-01T01:04:58.127Z,30.8
2018-09-01T01:05:59.694Z,28.8
2018-09-01T01:07:01.310Z,28.8
2018-09-01T01:08:02.886Z,27.9
2018-09-01T01:09:04.515Z,26.4
2018-09-01T01:10:06.098Z,26.9
2018-09-01T01:11:07.595Z,28.3
2018-09-01T01:12:09.266Z,30.8
2018-09-01T01:13:11.095Z,31.8
2018-09-01T01:14:12.722Z,33.7
2018-09-01T01:15:14.297Z,34.7
2018-09-01T01:16:15.864Z,36.2
2018-09-01T01:17:17.458Z,36.7
2018-09-01T01:18:19.041Z,37.1
2018-09-01T01:19:20.638Z,37.6
2018-09-01T01:20:22.208Z,37.6
2018-09-01T01:21:23.774Z,38.1
2018-09-01T01:22:25.337Z,39.1
2018-09-01T01:23:26.881Z,39.1
2018-09-01T01:24:28.432Z,39.6
2018-09-01T01:25:30.002Z,39.6
2018-09-01T01:26:31.574Z,40.1
2018-09-01T01:27:33.150Z,40.1
2018-09-01T01:28:34.758Z,39.1
2018-09-01T01:29:36.326Z,40.6
2018-09-01T01:30:37.895Z,40.6
2018-09-01T01:31:39.445Z,40.1
2018-09-01T01:32:41.005Z,40.1
2018-09-01T01:33:42.556Z,39.6
2018-09-01T01:34:44.116Z,40.1
2018-09-01T01:35:45.681Z,40.6
2018-09-01T01:36:47.249Z,40.6
2018-09-01T01:37:48.645Z,39.6
2018-09-01T01:38:50.050Z,40.6
2018-09-01T01:39:51.612Z,40.6
2018-09-01T01:40:53.176Z,40.1
2018-09-01T01:41:54.725Z,40.6
2018-09-01T01:42:56.136Z,40.6
2018-09-01T01:43:57.547Z,41.1
2018-09-01T01:44:58.950Z,40.1
2018-09-01T01:46:00.516Z,40.6
2018-09-01T01:47:02.071Z,41.1
2018-09-01T01:48:03.642Z,40.6
2018-09-01T01:49:05.196Z,40.1
2018-09-01T01:50:06.791Z,41.1
2018-09-01T01:51:08.374Z,40.1
2018-09-01T01:52:09.786Z,40.1
2018-09-01T01:53:11.371Z,41.1
2018-09-01T01:54:12.777Z,41.1
2018-09-01T01:55:14.352Z,40.6
2018-09-01T01:56:15.944Z,40.1
2018-09-01T01:57:17.508Z,41.5
2018-09-01T01:58:19.089Z,40.6
2018-09-01T01:59:20.657Z,41.5
2018-09-01T02:00:22.049Z,41.1
2018-09-01T02:01:23.641Z,40.6
2018-09-01T02:02:25.266Z,40.6
2018-09-01T02:03:26.826Z,40.6
2018-09-01T02:04:28.413Z,40.6
2018-09-01T02:05:29.988Z,41.1
2018-09-01T02:06:31.545Z,41.1
2018-09-01T02:07:33.118Z,40.6
2018-09-01T02:08:34.683Z,40.6
2018-09-01T02:09:36.246Z,40.6
2018-09-01T02:10:37.491Z,41.1
2018-09-01T02:11:39.075Z,40.6
2018-09-01T02:12:40.645Z,41.5
2018-09-01T02:13:42.208Z,40.6
2018-09-01T02:14:43.765Z,41.1
2018-09-01T02:15:45.313Z,40.1
2018-09-01T02:16:46.887Z,40.1
2018-09-01T02:17:48.438Z,40.6
2018-09-01T02:18:49.836Z,40.6
2018-09-01T02:19:51.406Z,39.6
2018-09-01T02:20:52.966Z,40.6
2018-09-01T02:21:54.529Z,40.1
2018-09-01T02:22:56.109Z,39.6
2018-09-01T02:23:57.674Z,40.1
2018-09-01T02:24:59.269Z,40.1
2018-09-01T02:26:00.845Z,40.1
2018-09-01T02:27:02.403Z,39.6
2018-09-01T02:28:03.966Z,40.6
2018-09-01T02:29:05.540Z,40.1
2018-09-01T02:30:06.935Z,40.1
2018-09-01T02:31:08.505Z,39.1
2018-09-01T02:32:10.074Z,39.6
2018-09-01T02:33:11.658Z,39.1
2018-09-01T02:34:13.080Z,39.6
2018-09-01T02:35:14.646Z,39.1
2018-09-01T02:36:16.276Z,39.1
2018-09-01T02:37:17.684Z,39.1
2018-09-01T02:38:19.246Z,39.6
2018-09-01T02:39:20.808Z,39.6
2018-09-01T02:40:22.368Z,39.1
2018-09-01T02:41:23.947Z,39.1
2018-09-01T02:42:25.503Z,39.1
2018-09-01T02:43:27.083Z,39.1
2018-09-01T02:44:28.487Z,39.6
2018-09-01T02:45:29.730Z,39.6
2018-09-01T02:46:31.289Z,39.6
2018-09-01T02:47:32.886Z,39.6
2018-09-01T02:48:34.446Z,38.6
2018-09-01T02:49:35.998Z,38.6
2018-09-01T02:50:37.546Z,39.1
2018-09-01T02:51:39.125Z,39.6
2018-09-01T02:52:40.565Z,39.6
2018-09-01T02:53:42.155Z,39.6
2018-09-01T02:54:43.716Z,38.6
2018-09-01T02:55:45.107Z,38.6
2018-09-01T02:56:46.673Z,38.1
2018-09-01T02:57:48.081Z,39.1
2018-09-01T02:58:49.665Z,38.6
2018-09-01T02:59:51.242Z,39.1
2018-09-01T03:00:52.820Z,39.1
2018-09-01T03:01:54.377Z,38.6
2018-09-01T03:02:55.936Z,38.6
2018-09-01T03:03:57.478Z,38.6
2018-09-01T03:04:59.043Z,38.6
2018-09-01T03:06:00.607Z,38.6
2018-09-01T03:07:16.877Z,39.1
2018-09-01T03:08:18.428Z,39.1
2018-09-01T03:09:19.983Z,38.1
2018-09-01T03:10:21.386Z,38.1
2018-09-01T03:11:22.939Z,39.1
2018-09-01T03:12:24.515Z,39.1
2018-09-01T03:13:26.079Z,39.1
2018-09-01T03:14:27.652Z,38.6
2018-09-01T03:15:29.224Z,39.1
2018-09-01T03:16:30.776Z,39.6
2018-09-01T03:17:32.346Z,40.1
2018-09-01T03:18:33.908Z,39.1
2018-09-01T03:19:35.466Z,39.6
2018-09-01T03:20:37.025Z,39.6
2018-09-01T03:21:38.604Z,39.6
2018-09-01T03:22:40.184Z,40.1
2018-09-01T03:23:41.745Z,39.6
2018-09-01T03:24:43.295Z,40.1
2018-09-01T03:25:44.858Z,40.1
2018-09-01T03:26:46.431Z,40.1
2018-09-01T03:27:47.992Z,40.1
2018-09-01T03:28:49.564Z,40.6
2018-09-01T03:29:51.145Z,40.1
2018-09-01T03:30:52.772Z,41.1
2018-09-01T03:31:54.364Z,40.6
2018-09-01T03:32:55.975Z,40.6
2018-09-01T03:33:57.516Z,40.6
2018-09-01T03:34:59.103Z,40.6
2018-09-01T03:36:00.645Z,41.1
2018-09-01T03:37:02.216Z,41.1
2018-09-01T03:38:03.792Z,41.1
2018-09-01T03:39:05.350Z,41.1
2018-09-01T03:40:06.920Z,41.1
2018-09-01T03:41:08.469Z,41.1
2018-09-01T03:42:10.017Z,40.6
2018-09-01T03:43:11.414Z,40.6
2018-09-01T03:44:12.818Z,40.6
2018-09-01T03:45:14.395Z,40.6
2018-09-01T03:46:15.975Z,41.5
2018-09-01T03:47:17.549Z,41.1
2018-09-01T03:48:19.145Z,40.1
2018-09-01T03:49:20.704Z,40.1
2018-09-01T03:50:22.266Z,41.1
2018-09-01T03:51:23.867Z,40.1
2018-09-01T03:52:25.419Z,40.6
2018-09-01T03:53:26.965Z,40.1
2018-09-01T03:54:28.549Z,40.6
2018-09-01T03:55:30.116Z,40.1
2018-09-01T03:56:31.662Z,39.6
2018-09-01T03:57:33.224Z,40.6
2018-09-01T03:58:34.785Z,41.1
2018-09-01T03:59:36.343Z,39.6
2018-09-01T04:00:37.760Z,40.6
2018-09-01T04:01:39.351Z,40.1
2018-09-01T04:02:40.835Z,40.1
2018-09-01T04:03:42.065Z,40.1
2018-09-01T04:04:43.657Z,39.6
2018-09-01T04:05:45.247Z,39.6
2018-09-01T04:06:46.810Z,39.6
2018-09-01T04:07:48.366Z,40.1
2018-09-01T04:08:49.772Z,40.6
2018-09-01T04:09:51.305Z,40.6
2018-09-01T04:10:52.575Z,39.1
2018-09-01T04:11:54.124Z,40.1
2018-09-01T04:12:55.510Z,40.1
2018-09-01T04:13:56.914Z,39.6
2018-09-01T04:14:58.490Z,39.6
2018-09-01T04:16:00.063Z,39.1
2018-09-01T04:17:01.625Z,39.1
2018-09-01T04:18:03.175Z,40.1
2018-09-01T04:19:04.757Z,39.6
2018-09-01T04:20:06.345Z,39.6
2018-09-01T04:21:07.910Z,38.6
2018-09-01T04:22:09.476Z,39.6
2018-09-01T04:23:10.875Z,39.1
2018-09-01T04:24:12.445Z,39.1
2018-09-01T04:25:14.009Z,39.6
2018-09-01T04:26:15.585Z,39.6
2018-09-01T04:27:17.161Z,39.6
2018-09-01T04:28:18.731Z,39.1
2018-09-01T04:29:20.287Z,39.1
2018-09-01T04:30:21.527Z,39.6
2018-09-01T04:31:23.082Z,39.1
2018-09-01T04:32:24.643Z,39.1
2018-09-01T04:33:26.213Z,39.1
2018-09-01T04:34:27.777Z,38.6
2018-09-01T04:35:29.317Z,38.6
2018-09-01T04:36:30.722Z,39.1
2018-09-01T04:37:32.321Z,39.1
2018-09-01T04:38:33.886Z,39.1
2018-09-01T04:39:35.277Z,39.1
2018-09-01T04:40:36.834Z,39.1
2018-09-01T04:41:38.253Z,39.1
2018-09-01T04:42:39.845Z,38.6
2018-09-01T04:43:41.414Z,38.6
2018-09-01T04:44:42.988Z,38.6
2018-09-01T04:45:44.545Z,39.1
2018-09-01T04:46:46.117Z,38.6
2018-09-01T04:47:47.675Z,38.6
2018-09-01T04:48:48.906Z,39.1
2018-09-01T04:49:50.448Z,39.1
2018-09-01T04:50:51.994Z,39.1
2018-09-01T04:51:53.556Z,39.1
2018-09-01T04:52:55.129Z,39.1
2018-09-01T04:53:56.693Z,38.6
2018-09-01T04:54:58.277Z,38.6
2018-09-01T04:55:59.833Z,38.6
2018-09-01T04:57:01.424Z,39.1
2018-09-01T04:58:03.018Z,39.6
2018-09-01T04:59:04.610Z,38.6
2018-09-01T05:00:06.303Z,39.6
2018-09-01T05:01:08.915Z,38.6
2018-09-01T05:02:10.786Z,38.6
2018-09-01T05:03:12.608Z,38.1
2018-09-01T05:04:14.228Z,38.6
2018-09-01T05:05:15.796Z,38.1
2018-09-01T05:06:17.395Z,39.1
2018-09-01T05:07:18.968Z,39.1
2018-09-01T05:08:20.214Z,38.6
2018-09-01T05:09:21.603Z,39.1
2018-09-01T05:10:23.007Z,40.1
2018-09-01T05:11:24.581Z,39.1
2018-09-01T05:12:26.163Z,38.6
2018-09-01T05:13:27.720Z,40.1
2018-09-01T05:14:29.103Z,40.1
2018-09-01T05:15:30.686Z,39.6
2018-09-01T05:16:32.259Z,40.6
2018-09-01T05:17:33.825Z,39.6
2018-09-01T05:18:35.385Z,40.1
2018-09-01T05:19:36.980Z,39.6
2018-09-01T05:20:38.543Z,40.6
2018-09-01T05:21:40.105Z,40.1
2018-09-01T05:22:41.656Z,40.1
2018-09-01T05:23:43.211Z,40.6
2018-09-01T05:24:44.777Z,40.1
2018-09-01T05:25:46.177Z,40.6
2018-09-01T05:26:47.754Z,40.6
2018-09-01T05:27:49.325Z,41.1
2018-09-01T05:28:50.876Z,40.6
2018-09-01T05:29:52.438Z,41.1
2018-09-01T05:30:54.043Z,39.6
2018-09-01T05:31:55.629Z,41.1
2018-09-01T05:32:57.187Z,41.1
2018-09-01T05:33:58.762Z,41.1
2018-09-01T05:35:00.345Z,40.6
2018-09-01T05:36:01.913Z,41.1
2018-09-01T05:37:03.483Z,40.6
2018-09-01T05:38:05.050Z,40.6
2018-09-01T05:39:06.611Z,40.1
2018-09-01T05:40:08.178Z,40.6
2018-09-01T05:41:09.769Z,40.6
2018-09-01T05:42:11.355Z,41.1
2018-09-01T05:43:12.927Z,41.1
2018-09-01T05:44:14.500Z,40.6
2018-09-01T05:45:16.072Z,41.1
2018-09-01T05:46:17.665Z,40.6
2018-09-01T05:47:19.219Z,40.1
2018-09-01T05:48:20.777Z,41.1
2018-09-01T05:49:22.323Z,40.6
2018-09-01T05:50:23.885Z,41.5
2018-09-01T05:51:25.466Z,39.6
2018-09-01T05:52:27.034Z,41.1
2018-09-01T05:53:28.593Z,40.6
2018-09-01T05:54:30.149Z,40.6
2018-09-01T05:55:31.704Z,40.1
2018-09-01T05:56:33.274Z,40.1
2018-09-01T05:57:34.825Z,40.1
2018-09-01T05:58:36.371Z,41.1
2018-09-01T05:59:37.954Z,41.1
2018-09-01T06:00:39.983Z,40.1
2018-09-01T06:01:41.925Z,40.1
2018-09-01T06:02:43.562Z,40.6
2018-09-01T06:03:45.144Z,40.6
2018-09-01T06:04:46.724Z,39.6
2018-09-01T06:05:48.723Z,40.6
2018-09-01T06:06:50.378Z,40.1
2018-09-01T06:07:51.839Z,39.6
2018-09-01T06:08:53.425Z,40.1
2018-09-01T06:09:54.829Z,40.1
2018-09-01T06:10:56.315Z,40.1
2018-09-01T06:11:57.865Z,39.1
2018-09-01T06:12:59.254Z,39.1
2018-09-01T06:14:00.816Z,40.1
2018-09-01T06:15:02.388Z,40.6
2018-09-01T06:16:03.944Z,40.1
2018-09-01T06:17:05.536Z,39.6
2018-09-01T06:18:07.108Z,39.6
2018-09-01T06:19:08.852Z,39.1
2018-09-01T06:20:10.629Z,38.6
2018-09-01T06:21:12.029Z,39.6
2018-09-01T06:22:13.621Z,39.1
2018-09-01T06:23:15.197Z,39.1
2018-09-01T06:24:16.789Z,40.1
2018-09-01T06:25:18.414Z,39.1
2018-09-01T06:26:20.004Z,39.6
2018-09-01T06:27:21.424Z,39.6
2018-09-01T06:28:23.039Z,39.6
2018-09-01T06:29:24.636Z,39.1
2018-09-01T06:30:26.203Z,39.1
2018-09-01T06:31:27.776Z,39.6
2018-09-01T06:32:29.349Z,39.6
2018-09-01T06:33:30.924Z,38.6
2018-09-01T06:34:32.481Z,39.6
2018-09-01T06:35:33.903Z,39.1
2018-09-01T06:36:35.488Z,39.1
2018-09-01T06:37:37.507Z,38.6
2018-09-01T06:38:39.266Z,39.1
2018-09-01T06:39:40.843Z,39.1
2018-09-01T06:40:42.636Z,39.1
2018-09-01T06:41:44.026Z,39.1
2018-09-01T06:42:45.438Z,39.1
2018-09-01T06:43:46.882Z,39.1
2018-09-01T06:44:48.117Z,39.1
2018-09-01T06:45:49.679Z,39.1
2018-09-01T06:46:51.272Z,38.6
2018-09-01T06:47:52.846Z,39.1
2018-09-01T06:48:54.451Z,38.6
2018-09-01T06:49:56.016Z,38.6
2018-09-01T06:50:57.592Z,38.6
2018-09-01T06:51:59.164Z,38.6
2018-09-01T06:53:00.825Z,38.6
2018-09-01T06:54:02.235Z,38.6
2018-09-01T06:55:03.813Z,39.1
2018-09-01T06:56:05.385Z,38.6
2018-09-01T06:57:06.786Z,39.1
2018-09-01T06:58:08.372Z,39.1
2018-09-01T06:59:09.942Z,38.6
2018-09-01T07:00:11.514Z,38.1
2018-09-01T07:01:13.084Z,39.1
2018-09-01T07:02:14.676Z,38.1
2018-09-01T07:03:16.073Z,38.6
2018-09-01T07:04:17.619Z,37.6
2018-09-01T07:05:19.197Z,38.1
2018-09-01T07:06:20.780Z,38.1
2018-09-01T07:07:22.354Z,38.6
2018-09-01T07:08:23.574Z,38.1
2018-09-01T07:09:25.193Z,38.1
2018-09-01T07:10:26.762Z,38.1
2018-09-01T07:11:28.185Z,38.1
2018-09-01T07:12:29.772Z,37.6
2018-09-01T07:13:31.368Z,38.6
2018-09-01T07:14:32.930Z,39.1
2018-09-01T07:15:34.500Z,39.1
2018-09-01T07:16:36.092Z,39.1
2018-09-01T07:17:37.534Z,38.6
2018-09-01T07:18:39.117Z,39.6
2018-09-01T07:19:40.806Z,39.6
2018-09-01T07:20:42.426Z,40.1
2018-09-01T07:21:43.990Z,40.1
2018-09-01T07:22:45.568Z,41.1
2018-09-01T07:23:47.155Z,40.6
2018-09-01T07:24:48.737Z,41.5
2018-09-01T07:25:50.331Z,41.1
2018-09-01T07:26:51.910Z,41.1
2018-09-01T07:27:53.515Z,40.6
2018-09-01T07:28:54.912Z,40.6
2018-09-01T07:29:56.489Z,41.1
2018-09-01T07:31:00.326Z,40.6
2018-09-01T07:32:03.283Z,40.6
2018-09-01T07:33:04.849Z,41.1
2018-09-01T07:34:06.419Z,41.5
2018-09-01T07:35:08.011Z,41.1
2018-09-01T07:36:09.602Z,41.5
2018-09-01T07:37:11.179Z,40.6
2018-09-01T07:38:12.800Z,41.1
2018-09-01T07:39:14.375Z,40.1
2018-09-01T07:40:15.932Z,40.6
2018-09-01T07:41:17.356Z,40.6
2018-09-01T07:42:18.942Z,40.6
2018-09-01T07:43:20.517Z,41.1
2018-09-01T07:44:22.087Z,40.6
2018-09-01T07:45:23.662Z,40.1
2018-09-01T07:46:25.238Z,41.1
2018-09-01T07:47:26.834Z,40.1
2018-09-01T07:48:28.409Z,41.1
2018-09-01T07:49:29.996Z,40.6
2018-09-01T07:50:31.566Z,40.1
2018-09-01T07:51:33.336Z,41.1
2018-09-01T07:52:34.744Z,40.6
2018-09-01T07:53:36.324Z,41.1
2018-09-01T07:54:38.109Z,40.1
2018-09-01T07:55:39.892Z,40.1
2018-09-01T07:56:41.993Z,40.1
2018-09-01T07:57:43.676Z,40.1
2018-09-01T07:58:45.286Z,40.6
2018-09-01T07:59:46.784Z,40.1
2018-09-01T08:00:48.376Z,40.1
2018-09-01T08:01:49.937Z,40.1
2018-09-01T08:02:51.534Z,39.6
2018-09-01T08:03:53.108Z,40.6
2018-09-01T08:04:54.689Z,39.6
2018-09-01T08:05:56.262Z,39.6
2018-09-01T08:06:57.669Z,39.6
2018-09-01T08:07:59.245Z,40.1
2018-09-01T08:09:00.864Z,39.6
2018-09-01T08:10:02.433Z,39.6
2018-09-01T08:11:04.015Z,39.6
2018-09-01T08:12:05.609Z,40.1
2018-09-01T08:13:07.180Z,39.6
2018-09-01T08:14:09.406Z,39.6
2018-09-01T08:15:11.370Z,39.1
2018-09-01T08:16:12.926Z,38.6
2018-09-01T08:17:14.497Z,39.1
2018-09-01T08:18:16.071Z,38.6
2018-09-01T08:19:17.664Z,39.1
2018-09-01T08:20:19.236Z,39.1
2018-09-01T08:21:20.827Z,39.6
2018-09-01T08:22:22.420Z,38.6
2018-09-01T08:23:24.005Z,39.1
2018-09-01T08:24:25.474Z,38.6
2018-09-01T08:25:27.054Z,39.1
2018-09-01T08:26:28.655Z,39.1
2018-09-01T08:27:30.218Z,38.1
2018-09-01T08:28:31.617Z,38.1
2018-09-01T08:29:33.181Z,38.6
2018-09-01T08:30:34.756Z,38.6
2018-09-01T08:31:36.338Z,38.6
2018-09-01T08:32:37.911Z,38.6
2018-09-01T08:33:39.657Z,38.6
2018-09-01T08:34:41.434Z,39.1
2018-09-01T08:35:43.010Z,39.1
2018-09-01T08:36:44.596Z,38.6
2018-09-01T08:37:46.202Z,39.6
2018-09-01T08:38:47.791Z,38.6
2018-09-01T08:39:49.205Z,38.6
2018-09-01T08:40:50.777Z,38.6
2018-09-01T08:41:52.362Z,38.1
2018-09-01T08:42:53.937Z,38.6
2018-09-01T08:43:55.337Z,39.1
2018-09-01T08:44:56.785Z,38.6
2018-09-01T08:45:58.364Z,39.1
2018-09-01T08:47:00.029Z,38.6
2018-09-01T08:48:01.567Z,39.1
2018-09-01T08:49:03.204Z,38.6
2018-09-01T08:50:04.788Z,39.1
2018-09-01T08:51:06.354Z,38.6
2018-09-01T08:52:07.908Z,39.6
2018-09-01T08:53:09.544Z,39.6
2018-09-01T08:54:11.280Z,40.1
2018-09-01T08:55:13.164Z,39.1
2018-09-01T08:56:14.725Z,39.6
2018-09-01T08:57:16.295Z,40.1
2018-09-01T08:58:17.998Z,40.1
2018-09-01T08:59:19.723Z,39.6
2018-09-01T09:00:21.367Z,40.6
2018-09-01T09:01:22.980Z,40.6
2018-09-01T09:02:24.543Z,40.6
2018-09-01T09:03:26.122Z,40.1
2018-09-01T09:04:27.686Z,40.6
2018-09-01T09:05:29.471Z,40.1
2018-09-01T09:06:31.157Z,40.6
2018-09-01T09:07:32.740Z,40.6
2018-09-01T09:08:34.339Z,41.1
2018-09-01T09:09:35.909Z,40.6
2018-09-01T09:10:37.465Z,40.6
2018-09-01T09:11:39.595Z,41.1
2018-09-01T09:12:41.532Z,40.6
2018-09-01T09:13:43.157Z,41.1
2018-09-01T09:14:44.787Z,41.1
2018-09-01T09:15:46.390Z,40.6
2018-09-01T09:16:47.948Z,40.1
2018-09-01T09:17:49.510Z,41.1
2018-09-01T09:18:51.107Z,41.1
2018-09-01T09:19:52.677Z,40.6
2018-09-01T09:20:54.236Z,40.1
2018-09-01T09:21:55.818Z,41.1
2018-09-01T09:22:57.407Z,41.1
2018-09-01T09:23:58.979Z,40.1
2018-09-01T09:25:00.537Z,41.1
2018-09-01T09:26:02.140Z,40.1
2018-09-01T09:27:03.724Z,40.1
2018-09-01T09:28:05.276Z,40.1
2018-09-01T09:29:06.833Z,40.6
2018-09-01T09:30:08.250Z,40.1
2018-09-01T09:31:09.844Z,39.6
2018-09-01T09:32:11.415Z,40.1
2018-09-01T09:33:12.993Z,40.6
2018-09-01T09:34:14.586Z,40.6
2018-09-01T09:35:16.150Z,39.6
2018-09-01T09:36:17.729Z,40.6
2018-09-01T09:37:19.179Z,40.6
2018-09-01T09:38:20.756Z,39.6
2018-09-01T09:39:22.354Z,39.6
2018-09-01T09:40:23.762Z,40.1
2018-09-01T09:41:25.352Z,39.6
2018-09-01T09:42:26.807Z,40.1
2018-09-01T09:43:28.392Z,40.1
2018-09-01T09:44:29.824Z,39.6
2018-09-01T09:45:31.396Z,39.6
2018-09-01T09:46:32.962Z,40.1
2018-09-01T09:47:34.544Z,40.1
2018-09-01T09:48:36.143Z,39.1
2018-09-01T09:49:37.704Z,39.6
2018-09-01T09:50:39.315Z,39.6
2018-09-01T09:51:40.925Z,39.1
2018-09-01T09:52:42.526Z,39.6
2018-09-01T09:53:44.096Z,40.1
2018-09-01T09:54:45.676Z,39.6
2018-09-01T09:55:47.276Z,40.1
2018-09-01T09:56:48.897Z,38.1
2018-09-01T09:57:50.482Z,39.6
2018-09-01T09:58:52.072Z,39.1
2018-09-01T09:59:53.645Z,39.6
2018-09-01T10:00:55.385Z,38.6
2018-09-01T10:01:57.094Z,39.1
2018-09-01T10:02:58.665Z,39.1
2018-09-01T10:04:00.255Z,38.6
2018-09-01T10:05:01.887Z,39.1
2018-09-01T10:06:03.307Z,39.6
2018-09-01T10:07:04.936Z,38.6
2018-09-01T10:08:06.506Z,38.6
2018-09-01T10:09:08.093Z,38.6
2018-09-01T10:10:09.657Z,38.1
2018-09-01T10:11:11.879Z,39.1
2018-09-01T10:12:13.930Z,39.1
2018-09-01T10:13:15.543Z,39.1
2018-09-01T10:14:17.111Z,39.1
2018-09-01T10:15:18.694Z,39.1
2018-09-01T10:16:20.255Z,39.1
2018-09-01T10:17:21.846Z,38.6
2018-09-01T10:18:23.626Z,39.1
2018-09-01T10:19:25.215Z,38.6
2018-09-01T10:20:26.953Z,39.1
2018-09-01T10:21:28.748Z,39.1
2018-09-01T10:22:30.346Z,38.6
2018-09-01T10:23:31.936Z,39.1
2018-09-01T10:24:33.522Z,38.1
2018-09-01T10:25:34.938Z,38.6
2018-09-01T10:26:36.512Z,39.1
2018-09-01T10:27:38.113Z,38.6
2018-09-01T10:28:39.708Z,37.6
2018-09-01T10:29:41.287Z,38.6
2018-09-01T10:30:42.904Z,38.6
2018-09-01T10:31:44.452Z,39.1
2018-09-01T10:32:46.052Z,39.1
2018-09-01T10:33:47.641Z,39.1
2018-09-01T10:34:49.296Z,39.6
2018-09-01T10:35:51.010Z,39.1
2018-09-01T10:36:52.609Z,39.6
2018-09-01T10:37:54.182Z,39.6
2018-09-01T10:38:55.783Z,39.6
2018-09-01T10:39:57.472Z,40.1
2018-09-01T10:40:59.078Z,40.1
2018-09-01T10:42:00.501Z,40.1
2018-09-01T10:43:02.098Z,40.1
2018-09-01T10:44:03.518Z,39.6
2018-09-01T10:45:05.088Z,39.6
2018-09-01T10:46:06.659Z,40.1
2018-09-01T10:47:08.234Z,39.1
2018-09-01T10:48:09.819Z,40.6
2018-09-01T10:49:11.393Z,40.6
2018-09-01T10:50:13.006Z,40.6
2018-09-01T10:51:14.695Z,41.1
2018-09-01T10:52:16.288Z,40.6
2018-09-01T10:53:17.747Z,40.6
2018-09-01T10:54:19.366Z,40.6
2018-09-01T10:55:20.981Z,40.6
2018-09-01T10:56:22.402Z,40.1
2018-09-01T10:57:23.981Z,41.1
2018-09-01T10:58:25.560Z,40.1
2018-09-01T10:59:27.706Z,40.1
2018-09-01T11:00:29.889Z,41.1
2018-09-01T11:01:31.454Z,40.6
2018-09-01T11:02:32.863Z,40.6
2018-09-01T11:03:34.450Z,40.6
2018-09-01T11:04:36.045Z,40.6
2018-09-01T11:05:38.267Z,40.6
2018-09-01T11:06:40.364Z,40.6
2018-09-01T11:07:41.936Z,39.6
2018-09-01T11:08:43.499Z,40.1
2018-09-01T11:09:45.077Z,40.6
2018-09-01T11:10:46.671Z,39.6
2018-09-01T11:11:48.353Z,40.6
2018-09-01T11:12:49.953Z,40.1
2018-09-01T11:13:51.549Z,40.6
2018-09-01T11:14:53.125Z,39.6
2018-09-01T11:15:54.694Z,40.1
2018-09-01T11:16:56.315Z,39.6
2018-09-01T11:17:58.022Z,40.1
2018-09-01T11:18:59.426Z,40.1
2018-09-01T11:20:01.176Z,40.1
2018-09-01T11:21:02.866Z,40.1
2018-09-01T11:22:04.462Z,39.6
2018-09-01T11:23:06.083Z,40.1
2018-09-01T11:24:07.702Z,40.1
2018-09-01T11:25:09.318Z,39.6
2018-09-01T11:26:10.894Z,39.6
2018-09-01T11:27:12.485Z,39.6
2018-09-01T11:28:14.438Z,40.1
2018-09-01T11:29:16.531Z,40.1
2018-09-01T11:30:18.096Z,39.6
2018-09-01T11:31:19.683Z,39.1
2018-09-01T11:32:21.302Z,39.1
2018-09-01T11:33:22.939Z,39.1
2018-09-01T11:34:24.356Z,39.6
2018-09-01T11:35:25.954Z,39.6
2018-09-01T11:36:27.591Z,39.1
2018-09-01T11:37:29.006Z,39.6
2018-09-01T11:38:30.564Z,39.6
2018-09-01T11:39:31.975Z,39.1
2018-09-01T11:40:33.661Z,38.6
2018-09-01T11:41:35.350Z,39.1
2018-09-01T11:42:37.443Z,38.6
2018-09-01T11:43:39.593Z,38.6
2018-09-01T11:44:41.208Z,39.1
2018-09-01T11:45:42.786Z,38.6
2018-09-01T11:46:44.386Z,38.1
2018-09-01T11:47:46.003Z,39.1
2018-09-01T11:48:47.665Z,39.1
2018-09-01T11:49:49.238Z,38.6
2018-09-01T11:50:50.966Z,38.6
2018-09-01T11:51:52.364Z,38.6
2018-09-01T11:52:53.991Z,38.6
2018-09-01T11:53:55.578Z,38.6
2018-09-01T11:54:57.143Z,38.6
2018-09-01T11:55:58.760Z,38.1
2018-09-01T11:57:00.326Z,38.1
2018-09-01T11:58:01.920Z,38.1
2018-09-01T11:59:03.494Z,38.6
2018-09-01T12:00:05.088Z,39.1
2018-09-01T12:01:06.704Z,39.1
2018-09-01T12:02:08.545Z,38.6
2018-09-01T12:03:10.247Z,38.6
2018-09-01T12:04:11.837Z,38.1
2018-09-01T12:05:13.437Z,38.6
2018-09-01T12:06:14.897Z,38.1
2018-09-01T12:07:16.479Z,38.6
2018-09-01T12:08:17.745Z,38.6
2018-09-01T12:09:19.558Z,38.1
2018-09-01T12:10:21.509Z,38.6
2018-09-01T12:11:23.111Z,38.6
2018-09-01T12:12:24.696Z,38.6
2018-09-01T12:13:26.270Z,39.1
2018-09-01T12:14:27.855Z,38.6
2018-09-01T12:15:29.269Z,38.6
2018-09-01T12:16:30.864Z,38.1
2018-09-01T12:17:32.428Z,38.6
2018-09-01T12:18:33.853Z,38.6
2018-09-01T12:19:35.450Z,39.6
2018-09-01T12:20:37.046Z,39.6
2018-09-01T12:21:38.641Z,39.1
2018-09-01T12:22:40.541Z,39.1
2018-09-01T12:23:42.119Z,40.1
2018-09-01T12:24:43.717Z,39.6
2018-09-01T12:25:45.140Z,40.1
2018-09-01T12:26:46.727Z,39.6
2018-09-01T12:27:48.335Z,40.6
2018-09-01T12:28:49.926Z,41.1
2018-09-01T12:29:51.345Z,40.1
2018-09-01T12:30:52.970Z,40.1
2018-09-01T12:31:54.382Z,40.6
2018-09-01T12:32:55.975Z,39.6
2018-09-01T12:33:57.565Z,40.6
2018-09-01T12:34:59.154Z,41.1
2018-09-01T12:36:00.757Z,40.1
2018-09-01T12:37:02.358Z,41.1
2018-09-01T12:38:03.942Z,40.1
2018-09-01T12:39:05.552Z,41.1
2018-09-01T12:40:07.114Z,40.1
2018-09-01T12:41:08.705Z,40.6
2018-09-01T12:42:11.038Z,41.1
2018-09-01T12:43:12.605Z,40.6
2018-09-01T12:44:14.219Z,40.1
2018-09-01T12:45:15.637Z,40.6
2018-09-01T12:46:17.240Z,40.1
2018-09-01T12:47:18.650Z,40.1
2018-09-01T12:48:20.237Z,40.6
2018-09-01T12:49:21.823Z,41.1
2018-09-01T12:50:23.433Z,40.6
2018-09-01T12:51:24.852Z,40.1
2018-09-01T12:52:26.445Z,40.1
2018-09-01T12:53:28.028Z,40.1
2018-09-01T12:54:29.435Z,40.6
2018-09-01T12:55:31.016Z,40.6
2018-09-01T12:56:32.693Z,40.1
2018-09-01T12:57:34.357Z,40.6
2018-09-01T12:58:35.956Z,40.1
2018-09-01T12:59:37.357Z,39.6
2018-09-01T13:00:39.064Z,40.6
2018-09-01T13:01:40.768Z,40.1
2018-09-01T13:02:42.350Z,40.1
2018-09-01T13:03:43.944Z,41.1
2018-09-01T13:04:45.529Z,39.1
2018-09-01T13:05:47.118Z,40.6
2018-09-01T13:06:48.530Z,40.1
2018-09-01T13:07:50.278Z,40.6
2018-09-01T13:08:51.973Z,39.6
2018-09-01T13:09:53.538Z,40.1
2018-09-01T13:10:55.159Z,39.6
2018-09-01T13:11:56.727Z,39.6
2018-09-01T13:12:58.327Z,40.1
2018-09-01T13:13:59.953Z,39.1
2018-09-01T13:15:01.544Z,39.1
2018-09-01T13:16:03.147Z,39.6
2018-09-01T13:17:04.713Z,39.1
2018-09-01T13:18:06.317Z,39.1
2018-09-01T13:19:07.893Z,38.6
2018-09-01T13:20:09.457Z,39.1
2018-09-01T13:21:11.032Z,39.1
2018-09-01T13:22:12.730Z,39.1
2018-09-01T13:23:14.360Z,38.6
2018-09-01T13:24:16.148Z,39.6
2018-09-01T13:25:17.959Z,38.6
2018-09-01T13:26:19.956Z,39.1
2018-09-01T13:27:21.667Z,39.6
2018-09-01T13:28:23.438Z,39.1
2018-09-01T13:29:25.087Z,39.1
2018-09-01T13:30:26.660Z,39.6
2018-09-01T13:31:28.241Z,38.1
2018-09-01T13:32:29.827Z,38.6
2018-09-01T13:33:31.431Z,38.6
2018-09-01T13:34:33.497Z,38.6
2018-09-01T13:35:35.091Z,38.6
2018-09-01T13:36:36.737Z,39.1
2018-09-01T13:37:38.337Z,39.1
2018-09-01T13:38:39.956Z,38.6
2018-09-01T13:39:41.547Z,38.6